Currently 75°F in Wildomar, California, USA
75°F
75°F / 49°F
calm
0.00"
Saturday, September 23, 2017 12:59 PM PDT

Wildomar, California Weather Summary
Last 36 Hours

Temperature Winds Hourly Humidity Dewpoint
Time Report Norm Report Norm Max Gusts Precip. Rpt. Norm Rpt. Norm Pressure
1,2Sat 12:59 PM  74.7°F  90°F  calm  3 mph  none  0.00"  39%  25%  47°F  49°F  N/A
Sat 12:00 PM  72.1°F  87°F  calm  3 mph  none  0.00"  43%  29%  47°F  50°F  N/A
Sat 11:00 AM  68.2°F  83°F  calm  2 mph  none  0.00"  55%  36%  51°F  52°F  N/A
Sat 10:00 AM  65.8°F  77°F  calm  2 mph  none  0.00"  65%  46%  53°F  54°F  N/A
Sat 09:00 AM  59.3°F  71°F  calm  1 mph  none  0.00"  84%  60%  54°F  55°F  N/A
Sat 08:00 AM  53.7°F  62°F  calm  1 mph  none  0.00"  93%  76%  52°F  54°F  N/A
Sat 07:00 AM  49.2°F  59°F  calm  calm  none  0.00"  92%  78%  47°F  52°F  N/A
3Sat 06:57 AM  49.2°F  59°F  calm  calm  none  ----  92%  78%  47°F  52°F  N/A
Sat 06:00 AM  51.1°F  59°F  calm  calm  none  0.00"  93%  77%  49°F  52°F  N/A
Sat 05:00 AM  50.0°F  60°F  calm  calm  none  0.00"  92%  75%  48°F  52°F  N/A
Sat 04:00 AM  50.6°F  61°F  calm  calm  none  0.00"  91%  74%  48°F  52°F  N/A
Sat 03:00 AM  51.2°F  61°F  calm  calm  none  0.00"  89%  72%  48°F  52°F  N/A
Sat 02:00 AM  51.8°F  62°F  calm  calm  none  0.00"  87%  70%  48°F  52°F  N/A
Sat 01:00 AM  53.1°F  63°F  calm  calm  none  0.00"  85%  68%  48°F  52°F  N/A
Sat 12:00 AM  54.8°F  65°F  calm  calm  none  0.00"  81%  66%  49°F  53°F  N/A
Fri 11:00 PM  57.2°F  66°F  calm  calm  none  0.00"  76%  64%  50°F  53°F  N/A
Fri 10:00 PM  60.5°F  68°F  calm  calm  none  0.00"  70%  60%  50°F  53°F  N/A
Fri 09:00 PM  61.8°F  71°F  calm  calm  none  0.00"  66%  56%  50°F  54°F  N/A
Fri 08:00 PM  63.0°F  74°F  calm  1 mph  none  0.00"  63%  50%  50°F  54°F  N/A
Fri 07:00 PM  64.5°F  79°F  calm  1 mph  none  0.00"  59%  42%  49°F  53°F  N/A
Fri 06:00 PM  67.9°F  84°F  calm  3 mph  none  0.00"  53%  33%  49°F  51°F  N/A
Fri 05:00 PM  72.9°F  89°F  calm  4 mph  none  0.00"  45%  27%  50°F  50°F  N/A
Fri 04:00 PM  76.3°F  92°F  calm  4 mph  none  0.00"  42%  24%  51°F  49°F  N/A
Fri 03:00 PM  73.8°F  92°F  calm  4 mph  none  0.00"  43%  23%  49°F  48°F  N/A
Fri 02:00 PM  73.9°F  91°F  calm  4 mph  none  0.00"  42%  24%  48°F  49°F  N/A
Fri 01:00 PM  70.9°F  90°F  calm  3 mph  none  0.00"  47%  27%  49°F  50°F  N/A
Fri 12:00 PM  68.3°F  87°F  calm  3 mph  none  0.00"  52%  31%  49°F  51°F  N/A
Fri 11:00 AM  66.2°F  83°F  calm  2 mph  none  0.00"  58%  37%  50°F  53°F  N/A
Fri 10:00 AM  64.3°F  77°F  calm  2 mph  none  0.00"  61%  47%  50°F  55°F  N/A
Fri 09:00 AM  59.4°F  71°F  calm  1 mph  none  0.00"  70%  61%  49°F  56°F  N/A
Fri 08:00 AM  52.9°F  63°F  calm  1 mph  none  0.00"  87%  77%  49°F  55°F  N/A
Fri 07:00 AM  50.1°F  59°F  calm  calm  none  0.00"  92%  79%  48°F  52°F  N/A
Fri 06:00 AM  50.0°F  60°F  calm  calm  none  0.00"  91%  78%  47°F  52°F  N/A
Fri 05:00 AM  50.2°F  60°F  calm  calm  none  0.00"  90%  76%  47°F  52°F  N/A
Fri 04:00 AM  50.9°F  61°F  calm  calm  none  0.00"  89%  75%  48°F  52°F  N/A
Fri 03:00 AM  51.2°F  62°F  calm  calm  none  0.00"  88%  73%  48°F  53°F  N/A
Fri 02:00 AM  52.5°F  62°F  calm  calm  none  0.00"  84%  71%  48°F  53°F  N/A
Fri 01:00 AM  53.7°F  63°F  calm  calm  none  0.00"  82%  70%  48°F  53°F  N/A

  1. Current weather data. No green row appears if the current weather data is also the high or low for the current day.
  2. High temperature for the current day.
  3. Low temperature for the current day.

The Wildomar, California weather pages are a service of WeatherCurrents. Wildomar is located southwestern Riverside County, California, north of Murrieta and south of Lake Elsinore.
Copyright ©Sat Sep 23 13:00:32 PDT 2017  WeatherCurrents. All rights reserved. - Submit questions and comments - Privacy Policy

This page automatically refreshes every 10 minutes.